sensor_id;sensor_type;location;lat;lon;timestamp;P1;durP1;ratioP1;P2;durP2;ratioP2
72676;SDS011;60755;51.374;10.662;2023-05-16T00:01:06;21.33;;;15.27;;
72676;SDS011;60755;51.374;10.662;2023-05-16T00:03:33;23.07;;;15.43;;
72676;SDS011;60755;51.374;10.662;2023-05-16T00:06:01;20.10;;;16.70;;
72676;SDS011;60755;51.374;10.662;2023-05-16T00:08:29;25.37;;;17.27;;
72676;SDS011;60755;51.374;10.662;2023-05-16T00:10:56;24.33;;;18.37;;
72676;SDS011;60755;51.374;10.662;2023-05-16T00:13:23;29.80;;;21.20;;
72676;SDS011;60755;51.374;10.662;2023-05-16T00:15:50;30.93;;;20.80;;
72676;SDS011;60755;51.374;10.662;2023-05-16T00:18:17;27.33;;;21.07;;
72676;SDS011;60755;51.374;10.662;2023-05-16T00:20:46;31.03;;;21.50;;
72676;SDS011;60755;51.374;10.662;2023-05-16T00:23:13;27.60;;;21.07;;
72676;SDS011;60755;51.374;10.662;2023-05-16T00:25:41;32.70;;;23.63;;
72676;SDS011;60755;51.374;10.662;2023-05-16T00:28:08;33.93;;;24.53;;
72676;SDS011;60755;51.374;10.662;2023-05-16T00:30:35;30.20;;;23.37;;
72676;SDS011;60755;51.374;10.662;2023-05-16T00:33:02;32.97;;;24.20;;
72676;SDS011;60755;51.374;10.662;2023-05-16T00:35:29;37.00;;;24.00;;
72676;SDS011;60755;51.374;10.662;2023-05-16T00:37:55;32.90;;;24.67;;
72676;SDS011;60755;51.374;10.662;2023-05-16T00:40:22;33.30;;;24.17;;
72676;SDS011;60755;51.374;10.662;2023-05-16T00:42:50;32.27;;;23.40;;
72676;SDS011;60755;51.374;10.662;2023-05-16T00:45:18;33.57;;;22.80;;
72676;SDS011;60755;51.374;10.662;2023-05-16T00:47:45;31.37;;;22.77;;
72676;SDS011;60755;51.374;10.662;2023-05-16T00:50:11;30.60;;;21.83;;
72676;SDS011;60755;51.374;10.662;2023-05-16T00:52:38;26.37;;;20.70;;
72676;SDS011;60755;51.374;10.662;2023-05-16T00:55:06;28.40;;;21.07;;
72676;SDS011;60755;51.374;10.662;2023-05-16T00:57:35;30.07;;;19.73;;
72676;SDS011;60755;51.374;10.662;2023-05-16T01:00:04;29.07;;;20.13;;
72676;SDS011;60755;51.374;10.662;2023-05-16T01:02:34;28.67;;;20.17;;
72676;SDS011;60755;51.374;10.662;2023-05-16T01:05:03;26.10;;;19.87;;
72676;SDS011;60755;51.374;10.662;2023-05-16T01:07:31;24.67;;;18.40;;
72676;SDS011;60755;51.374;10.662;2023-05-16T01:09:58;26.50;;;19.50;;
72676;SDS011;60755;51.374;10.662;2023-05-16T01:12:29;25.83;;;18.83;;
72676;SDS011;60755;51.374;10.662;2023-05-16T01:15:06;26.73;;;19.37;;
72676;SDS011;60755;51.374;10.662;2023-05-16T01:17:37;29.30;;;18.63;;
72676;SDS011;60755;51.374;10.662;2023-05-16T01:20:12;22.63;;;18.20;;
72676;SDS011;60755;51.374;10.662;2023-05-16T01:22:47;23.73;;;17.17;;
72676;SDS011;60755;51.374;10.662;2023-05-16T01:25:31;25.63;;;18.10;;
72676;SDS011;60755;51.374;10.662;2023-05-16T01:28:11;23.07;;;17.77;;
72676;SDS011;60755;51.374;10.662;2023-05-16T01:30:39;23.80;;;17.83;;
72676;SDS011;60755;51.374;10.662;2023-05-16T01:33:07;23.93;;;16.87;;
72676;SDS011;60755;51.374;10.662;2023-05-16T01:35:34;23.67;;;17.47;;
72676;SDS011;60755;51.374;10.662;2023-05-16T01:38:10;23.30;;;18.17;;
72676;SDS011;60755;51.374;10.662;2023-05-16T01:40:44;23.30;;;18.13;;
72676;SDS011;60755;51.374;10.662;2023-05-16T01:43:20;24.00;;;17.57;;
72676;SDS011;60755;51.374;10.662;2023-05-16T01:45:56;25.07;;;17.67;;
72676;SDS011;60755;51.374;10.662;2023-05-16T01:48:38;22.20;;;17.50;;
72676;SDS011;60755;51.374;10.662;2023-05-16T01:51:10;22.40;;;16.27;;
72676;SDS011;60755;51.374;10.662;2023-05-16T01:53:38;24.43;;;17.70;;
72676;SDS011;60755;51.374;10.662;2023-05-16T01:56:07;22.33;;;15.97;;
72676;SDS011;60755;51.374;10.662;2023-05-16T01:58:37;22.13;;;17.57;;
72676;SDS011;60755;51.374;10.662;2023-05-16T02:01:05;23.87;;;16.47;;
72676;SDS011;60755;51.374;10.662;2023-05-16T02:03:31;22.10;;;16.77;;
72676;SDS011;60755;51.374;10.662;2023-05-16T02:05:59;21.53;;;17.07;;
72676;SDS011;60755;51.374;10.662;2023-05-16T02:08:26;20.37;;;15.63;;
72676;SDS011;60755;51.374;10.662;2023-05-16T02:10:53;22.07;;;15.67;;
72676;SDS011;60755;51.374;10.662;2023-05-16T02:13:20;20.60;;;15.00;;
72676;SDS011;60755;51.374;10.662;2023-05-16T02:15:48;19.17;;;14.40;;
72676;SDS011;60755;51.374;10.662;2023-05-16T02:18:15;20.53;;;14.97;;
72676;SDS011;60755;51.374;10.662;2023-05-16T02:20:43;18.70;;;13.87;;
72676;SDS011;60755;51.374;10.662;2023-05-16T02:23:10;19.43;;;14.53;;
72676;SDS011;60755;51.374;10.662;2023-05-16T02:25:37;17.77;;;14.13;;
72676;SDS011;60755;51.374;10.662;2023-05-16T02:28:03;16.83;;;13.47;;
72676;SDS011;60755;51.374;10.662;2023-05-16T02:30:31;20.10;;;15.00;;
72676;SDS011;60755;51.374;10.662;2023-05-16T02:32:59;18.40;;;13.87;;
72676;SDS011;60755;51.374;10.662;2023-05-16T02:35:26;19.37;;;14.37;;
72676;SDS011;60755;51.374;10.662;2023-05-16T02:37:52;21.13;;;14.27;;
72676;SDS011;60755;51.374;10.662;2023-05-16T02:40:20;19.90;;;13.87;;
72676;SDS011;60755;51.374;10.662;2023-05-16T02:42:46;20.53;;;14.83;;
72676;SDS011;60755;51.374;10.662;2023-05-16T02:45:14;21.97;;;14.80;;
72676;SDS011;60755;51.374;10.662;2023-05-16T02:47:41;22.13;;;14.20;;
72676;SDS011;60755;51.374;10.662;2023-05-16T02:50:09;20.53;;;13.33;;
72676;SDS011;60755;51.374;10.662;2023-05-16T02:52:36;19.90;;;14.07;;
72676;SDS011;60755;51.374;10.662;2023-05-16T02:55:03;22.10;;;15.57;;
72676;SDS011;60755;51.374;10.662;2023-05-16T02:57:32;19.50;;;13.80;;
72676;SDS011;60755;51.374;10.662;2023-05-16T02:59:58;21.10;;;14.13;;
72676;SDS011;60755;51.374;10.662;2023-05-16T03:02:25;21.73;;;14.53;;
72676;SDS011;60755;51.374;10.662;2023-05-16T03:04:52;21.17;;;13.70;;
72676;SDS011;60755;51.374;10.662;2023-05-16T03:07:20;17.83;;;13.23;;
72676;SDS011;60755;51.374;10.662;2023-05-16T03:09:47;20.63;;;13.97;;
72676;SDS011;60755;51.374;10.662;2023-05-16T03:12:13;18.07;;;13.63;;
72676;SDS011;60755;51.374;10.662;2023-05-16T03:14:40;17.80;;;13.43;;
72676;SDS011;60755;51.374;10.662;2023-05-16T03:17:08;20.50;;;14.20;;
72676;SDS011;60755;51.374;10.662;2023-05-16T03:19:35;19.90;;;14.20;;
72676;SDS011;60755;51.374;10.662;2023-05-16T03:22:02;21.03;;;14.20;;
72676;SDS011;60755;51.374;10.662;2023-05-16T03:24:30;21.73;;;14.47;;
72676;SDS011;60755;51.374;10.662;2023-05-16T03:26:57;22.47;;;14.73;;
72676;SDS011;60755;51.374;10.662;2023-05-16T03:29:24;23.27;;;15.50;;
72676;SDS011;60755;51.374;10.662;2023-05-16T03:31:51;23.13;;;15.60;;
72676;SDS011;60755;51.374;10.662;2023-05-16T03:34:18;23.87;;;15.03;;
72676;SDS011;60755;51.374;10.662;2023-05-16T03:36:46;24.67;;;15.57;;
72676;SDS011;60755;51.374;10.662;2023-05-16T03:39:13;23.67;;;15.30;;
72676;SDS011;60755;51.374;10.662;2023-05-16T03:41:42;20.53;;;14.80;;
72676;SDS011;60755;51.374;10.662;2023-05-16T03:44:09;18.90;;;13.23;;
72676;SDS011;60755;51.374;10.662;2023-05-16T03:46:35;25.10;;;13.90;;
72676;SDS011;60755;51.374;10.662;2023-05-16T03:49:02;18.77;;;12.53;;
72676;SDS011;60755;51.374;10.662;2023-05-16T03:51:29;17.90;;;12.83;;
72676;SDS011;60755;51.374;10.662;2023-05-16T03:53:56;16.10;;;12.27;;
72676;SDS011;60755;51.374;10.662;2023-05-16T03:56:22;15.33;;;11.20;;
72676;SDS011;60755;51.374;10.662;2023-05-16T03:58:51;15.37;;;11.70;;
72676;SDS011;60755;51.374;10.662;2023-05-16T04:01:18;17.30;;;11.60;;
72676;SDS011;60755;51.374;10.662;2023-05-16T04:03:45;18.43;;;11.87;;
72676;SDS011;60755;51.374;10.662;2023-05-16T04:06:11;15.20;;;11.40;;
72676;SDS011;60755;51.374;10.662;2023-05-16T04:08:38;16.43;;;11.50;;
72676;SDS011;60755;51.374;10.662;2023-05-16T04:11:05;14.63;;;10.70;;
72676;SDS011;60755;51.374;10.662;2023-05-16T04:13:32;13.90;;;10.53;;
72676;SDS011;60755;51.374;10.662;2023-05-16T04:16:00;16.10;;;11.23;;
72676;SDS011;60755;51.374;10.662;2023-05-16T04:18:27;15.63;;;11.07;;
72676;SDS011;60755;51.374;10.662;2023-05-16T04:20:54;16.13;;;11.23;;
72676;SDS011;60755;51.374;10.662;2023-05-16T04:23:20;13.53;;;10.20;;
72676;SDS011;60755;51.374;10.662;2023-05-16T04:25:47;12.00;;;9.53;;
72676;SDS011;60755;51.374;10.662;2023-05-16T04:28:14;12.67;;;9.70;;
72676;SDS011;60755;51.374;10.662;2023-05-16T04:30:41;10.83;;;9.27;;
72676;SDS011;60755;51.374;10.662;2023-05-16T04:33:09;15.40;;;9.83;;
72676;SDS011;60755;51.374;10.662;2023-05-16T04:35:36;15.33;;;10.20;;
72676;SDS011;60755;51.374;10.662;2023-05-16T04:38:02;10.53;;;8.57;;
72676;SDS011;60755;51.374;10.662;2023-05-16T04:40:29;11.93;;;8.77;;
72676;SDS011;60755;51.374;10.662;2023-05-16T04:42:57;12.97;;;9.17;;
72676;SDS011;60755;51.374;10.662;2023-05-16T04:45:24;11.50;;;8.20;;
72676;SDS011;60755;51.374;10.662;2023-05-16T04:47:50;10.43;;;8.63;;
72676;SDS011;60755;51.374;10.662;2023-05-16T04:50:19;13.20;;;8.80;;
72676;SDS011;60755;51.374;10.662;2023-05-16T04:52:45;10.87;;;8.93;;
72676;SDS011;60755;51.374;10.662;2023-05-16T04:55:12;10.03;;;8.50;;
72676;SDS011;60755;51.374;10.662;2023-05-16T04:57:39;8.73;;;7.60;;
72676;SDS011;60755;51.374;10.662;2023-05-16T05:00:06;13.90;;;7.57;;
72676;SDS011;60755;51.374;10.662;2023-05-16T05:02:34;7.83;;;6.37;;
72676;SDS011;60755;51.374;10.662;2023-05-16T05:05:02;10.30;;;7.20;;
72676;SDS011;60755;51.374;10.662;2023-05-16T05:07:30;8.00;;;7.07;;
72676;SDS011;60755;51.374;10.662;2023-05-16T05:09:57;7.20;;;6.40;;
72676;SDS011;60755;51.374;10.662;2023-05-16T05:12:24;7.47;;;6.23;;
72676;SDS011;60755;51.374;10.662;2023-05-16T05:14:52;7.73;;;6.77;;
72676;SDS011;60755;51.374;10.662;2023-05-16T05:17:19;9.47;;;6.47;;
72676;SDS011;60755;51.374;10.662;2023-05-16T05:19:47;8.63;;;6.40;;
72676;SDS011;60755;51.374;10.662;2023-05-16T05:22:14;8.53;;;6.77;;
72676;SDS011;60755;51.374;10.662;2023-05-16T05:24:42;7.50;;;6.60;;
72676;SDS011;60755;51.374;10.662;2023-05-16T05:27:09;9.33;;;6.97;;
72676;SDS011;60755;51.374;10.662;2023-05-16T05:29:35;9.37;;;7.50;;
72676;SDS011;60755;51.374;10.662;2023-05-16T05:32:02;11.30;;;8.00;;
72676;SDS011;60755;51.374;10.662;2023-05-16T05:34:29;9.00;;;6.97;;
72676;SDS011;60755;51.374;10.662;2023-05-16T05:36:57;10.23;;;7.40;;
72676;SDS011;60755;51.374;10.662;2023-05-16T05:39:24;7.40;;;6.60;;
72676;SDS011;60755;51.374;10.662;2023-05-16T05:41:52;8.87;;;6.73;;
72676;SDS011;60755;51.374;10.662;2023-05-16T05:44:19;7.37;;;6.63;;
72676;SDS011;60755;51.374;10.662;2023-05-16T05:46:46;8.40;;;7.03;;
72676;SDS011;60755;51.374;10.662;2023-05-16T05:49:12;8.70;;;7.30;;
72676;SDS011;60755;51.374;10.662;2023-05-16T05:51:40;9.33;;;8.30;;
72676;SDS011;60755;51.374;10.662;2023-05-16T05:54:07;10.37;;;8.67;;
72676;SDS011;60755;51.374;10.662;2023-05-16T05:56:34;13.43;;;8.47;;
72676;SDS011;60755;51.374;10.662;2023-05-16T05:59:02;9.80;;;8.10;;
72676;SDS011;60755;51.374;10.662;2023-05-16T06:01:29;13.07;;;8.33;;
72676;SDS011;60755;51.374;10.662;2023-05-16T06:03:55;10.30;;;8.57;;
72676;SDS011;60755;51.374;10.662;2023-05-16T06:06:22;8.50;;;7.37;;
72676;SDS011;60755;51.374;10.662;2023-05-16T06:08:49;9.10;;;7.27;;
72676;SDS011;60755;51.374;10.662;2023-05-16T06:11:16;7.37;;;6.67;;
72676;SDS011;60755;51.374;10.662;2023-05-16T06:13:44;6.77;;;6.17;;
72676;SDS011;60755;51.374;10.662;2023-05-16T06:16:12;6.63;;;5.43;;
72676;SDS011;60755;51.374;10.662;2023-05-16T06:18:39;5.93;;;5.40;;
72676;SDS011;60755;51.374;10.662;2023-05-16T06:21:06;4.80;;;4.37;;
72676;SDS011;60755;51.374;10.662;2023-05-16T06:23:33;4.67;;;3.97;;
72676;SDS011;60755;51.374;10.662;2023-05-16T06:26:00;4.40;;;4.00;;
72676;SDS011;60755;51.374;10.662;2023-05-16T06:28:27;4.20;;;3.80;;
72676;SDS011;60755;51.374;10.662;2023-05-16T06:30:54;3.93;;;3.60;;
72676;SDS011;60755;51.374;10.662;2023-05-16T06:33:22;5.83;;;3.90;;
72676;SDS011;60755;51.374;10.662;2023-05-16T06:35:49;4.17;;;3.77;;
72676;SDS011;60755;51.374;10.662;2023-05-16T06:38:17;3.63;;;3.37;;
72676;SDS011;60755;51.374;10.662;2023-05-16T06:40:44;3.73;;;3.40;;
72676;SDS011;60755;51.374;10.662;2023-05-16T06:43:11;4.57;;;3.40;;
72676;SDS011;60755;51.374;10.662;2023-05-16T06:45:38;3.10;;;2.90;;
72676;SDS011;60755;51.374;10.662;2023-05-16T06:48:05;4.43;;;4.03;;
72676;SDS011;60755;51.374;10.662;2023-05-16T06:50:34;3.23;;;3.00;;
72676;SDS011;60755;51.374;10.662;2023-05-16T06:53:01;5.67;;;2.80;;
72676;SDS011;60755;51.374;10.662;2023-05-16T06:55:29;2.60;;;2.40;;
72676;SDS011;60755;51.374;10.662;2023-05-16T06:57:56;3.20;;;2.70;;
72676;SDS011;60755;51.374;10.662;2023-05-16T07:00:22;2.40;;;2.13;;
72676;SDS011;60755;51.374;10.662;2023-05-16T07:02:49;2.73;;;1.93;;
72676;SDS011;60755;51.374;10.662;2023-05-16T07:05:17;2.03;;;1.93;;
72676;SDS011;60755;51.374;10.662;2023-05-16T07:07:45;1.97;;;1.77;;
72676;SDS011;60755;51.374;10.662;2023-05-16T07:10:13;2.20;;;2.10;;
72676;SDS011;60755;51.374;10.662;2023-05-16T07:12:40;1.60;;;1.57;;
72676;SDS011;60755;51.374;10.662;2023-05-16T07:15:08;1.60;;;1.60;;
72676;SDS011;60755;51.374;10.662;2023-05-16T07:17:35;1.90;;;1.80;;
72676;SDS011;60755;51.374;10.662;2023-05-16T07:20:02;2.20;;;2.00;;
72676;SDS011;60755;51.374;10.662;2023-05-16T07:22:29;2.33;;;2.10;;
72676;SDS011;60755;51.374;10.662;2023-05-16T07:24:57;3.53;;;2.13;;
72676;SDS011;60755;51.374;10.662;2023-05-16T07:27:25;2.20;;;2.00;;
72676;SDS011;60755;51.374;10.662;2023-05-16T07:29:52;4.20;;;1.83;;
72676;SDS011;60755;51.374;10.662;2023-05-16T07:32:19;2.43;;;1.70;;
72676;SDS011;60755;51.374;10.662;2023-05-16T07:34:46;3.50;;;2.00;;
72676;SDS011;60755;51.374;10.662;2023-05-16T07:37:13;2.00;;;1.90;;
72676;SDS011;60755;51.374;10.662;2023-05-16T07:39:40;2.10;;;1.90;;
72676;SDS011;60755;51.374;10.662;2023-05-16T07:42:09;2.40;;;2.20;;
72676;SDS011;60755;51.374;10.662;2023-05-16T07:44:35;2.17;;;1.97;;
72676;SDS011;60755;51.374;10.662;2023-05-16T07:47:02;3.93;;;2.50;;
72676;SDS011;60755;51.374;10.662;2023-05-16T07:49:29;2.87;;;2.67;;
72676;SDS011;60755;51.374;10.662;2023-05-16T07:51:56;3.73;;;2.60;;
72676;SDS011;60755;51.374;10.662;2023-05-16T07:54:22;3.70;;;2.70;;
72676;SDS011;60755;51.374;10.662;2023-05-16T07:56:49;4.43;;;2.60;;
72676;SDS011;60755;51.374;10.662;2023-05-16T07:59:17;5.03;;;3.30;;
72676;SDS011;60755;51.374;10.662;2023-05-16T08:01:44;4.23;;;3.20;;
72676;SDS011;60755;51.374;10.662;2023-05-16T08:04:11;6.20;;;3.20;;
72676;SDS011;60755;51.374;10.662;2023-05-16T08:06:39;4.40;;;3.60;;
72676;SDS011;60755;51.374;10.662;2023-05-16T08:09:06;4.07;;;3.50;;
72676;SDS011;60755;51.374;10.662;2023-05-16T08:11:34;4.80;;;3.90;;
72676;SDS011;60755;51.374;10.662;2023-05-16T08:14:01;3.33;;;3.03;;
72676;SDS011;60755;51.374;10.662;2023-05-16T08:16:30;3.53;;;3.20;;
72676;SDS011;60755;51.374;10.662;2023-05-16T08:18:57;3.87;;;3.47;;
72676;SDS011;60755;51.374;10.662;2023-05-16T08:21:23;4.40;;;3.20;;
72676;SDS011;60755;51.374;10.662;2023-05-16T08:23:51;3.67;;;3.37;;
72676;SDS011;60755;51.374;10.662;2023-05-16T08:26:17;7.73;;;3.77;;
72676;SDS011;60755;51.374;10.662;2023-05-16T08:28:46;7.63;;;3.53;;
72676;SDS011;60755;51.374;10.662;2023-05-16T08:31:13;4.27;;;3.70;;
72676;SDS011;60755;51.374;10.662;2023-05-16T08:33:41;4.37;;;3.40;;
72676;SDS011;60755;51.374;10.662;2023-05-16T08:36:08;7.33;;;3.90;;
72676;SDS011;60755;51.374;10.662;2023-05-16T08:38:35;5.43;;;3.80;;
72676;SDS011;60755;51.374;10.662;2023-05-16T08:41:02;8.37;;;4.50;;
72676;SDS011;60755;51.374;10.662;2023-05-16T08:43:29;7.63;;;4.10;;
72676;SDS011;60755;51.374;10.662;2023-05-16T08:45:57;9.03;;;4.37;;
72676;SDS011;60755;51.374;10.662;2023-05-16T08:48:25;9.83;;;4.47;;
72676;SDS011;60755;51.374;10.662;2023-05-16T08:50:56;8.03;;;4.50;;
72676;SDS011;60755;51.374;10.662;2023-05-16T08:53:25;11.00;;;5.07;;
72676;SDS011;60755;51.374;10.662;2023-05-16T08:55:57;8.10;;;4.43;;
72676;SDS011;60755;51.374;10.662;2023-05-16T08:58:25;8.17;;;4.20;;
72676;SDS011;60755;51.374;10.662;2023-05-16T09:00:54;8.33;;;4.37;;
72676;SDS011;60755;51.374;10.662;2023-05-16T09:03:22;10.83;;;5.00;;
72676;SDS011;60755;51.374;10.662;2023-05-16T09:05:49;9.50;;;4.20;;
72676;SDS011;60755;51.374;10.662;2023-05-16T09:08:18;8.47;;;4.00;;
72676;SDS011;60755;51.374;10.662;2023-05-16T09:10:45;9.00;;;4.10;;
72676;SDS011;60755;51.374;10.662;2023-05-16T09:13:12;9.73;;;3.83;;
72676;SDS011;60755;51.374;10.662;2023-05-16T09:15:39;7.50;;;3.80;;
72676;SDS011;60755;51.374;10.662;2023-05-16T09:18:10;8.60;;;3.53;;
72676;SDS011;60755;51.374;10.662;2023-05-16T09:20:37;6.77;;;3.47;;
72676;SDS011;60755;51.374;10.662;2023-05-16T09:23:11;6.57;;;3.80;;
72676;SDS011;60755;51.374;10.662;2023-05-16T09:25:39;7.13;;;3.40;;
72676;SDS011;60755;51.374;10.662;2023-05-16T09:28:09;4.47;;;3.10;;
72676;SDS011;60755;51.374;10.662;2023-05-16T09:30:37;5.77;;;3.07;;
72676;SDS011;60755;51.374;10.662;2023-05-16T09:33:05;9.43;;;3.40;;
72676;SDS011;60755;51.374;10.662;2023-05-16T09:35:32;5.60;;;2.97;;
72676;SDS011;60755;51.374;10.662;2023-05-16T09:37:59;8.07;;;3.20;;
72676;SDS011;60755;51.374;10.662;2023-05-16T09:40:25;6.07;;;2.87;;
72676;SDS011;60755;51.374;10.662;2023-05-16T09:43:00;6.50;;;3.00;;
72676;SDS011;60755;51.374;10.662;2023-05-16T09:45:29;6.83;;;3.00;;
72676;SDS011;60755;51.374;10.662;2023-05-16T09:47:59;8.03;;;2.30;;
72676;SDS011;60755;51.374;10.662;2023-05-16T09:50:27;6.47;;;2.90;;
72676;SDS011;60755;51.374;10.662;2023-05-16T09:52:55;6.43;;;2.90;;
72676;SDS011;60755;51.374;10.662;2023-05-16T09:55:22;7.77;;;2.70;;
72676;SDS011;60755;51.374;10.662;2023-05-16T09:57:49;5.10;;;2.27;;
72676;SDS011;60755;51.374;10.662;2023-05-16T10:00:17;5.37;;;2.73;;
72676;SDS011;60755;51.374;10.662;2023-05-16T10:02:44;8.87;;;3.13;;
72676;SDS011;60755;51.374;10.662;2023-05-16T10:05:11;10.30;;;3.20;;
72676;SDS011;60755;51.374;10.662;2023-05-16T10:07:39;6.67;;;2.10;;
72676;SDS011;60755;51.374;10.662;2023-05-16T10:10:08;4.17;;;2.77;;
72676;SDS011;60755;51.374;10.662;2023-05-16T10:12:36;9.10;;;2.10;;
72676;SDS011;60755;51.374;10.662;2023-05-16T10:15:04;8.90;;;2.60;;
72676;SDS011;60755;51.374;10.662;2023-05-16T10:17:34;5.57;;;2.37;;
72676;SDS011;60755;51.374;10.662;2023-05-16T10:20:06;3.77;;;1.73;;
72676;SDS011;60755;51.374;10.662;2023-05-16T10:22:35;4.73;;;2.50;;
72676;SDS011;60755;51.374;10.662;2023-05-16T10:25:07;6.30;;;1.90;;
72676;SDS011;60755;51.374;10.662;2023-05-16T10:27:38;5.93;;;2.10;;
72676;SDS011;60755;51.374;10.662;2023-05-16T10:30:05;4.50;;;2.40;;
72676;SDS011;60755;51.374;10.662;2023-05-16T10:32:35;7.70;;;2.10;;
72676;SDS011;60755;51.374;10.662;2023-05-16T10:35:10;3.63;;;1.77;;
72676;SDS011;60755;51.374;10.662;2023-05-16T10:37:38;6.27;;;2.23;;
72676;SDS011;60755;51.374;10.662;2023-05-16T10:40:06;7.77;;;2.30;;
72676;SDS011;60755;51.374;10.662;2023-05-16T10:42:34;6.73;;;1.93;;
72676;SDS011;60755;51.374;10.662;2023-05-16T10:45:08;5.27;;;2.00;;
72676;SDS011;60755;51.374;10.662;2023-05-16T10:47:49;2.93;;;1.70;;
72676;SDS011;60755;51.374;10.662;2023-05-16T10:50:30;5.83;;;2.00;;
72676;SDS011;60755;51.374;10.662;2023-05-16T10:53:10;3.57;;;1.50;;
72676;SDS011;60755;51.374;10.662;2023-05-16T10:55:47;4.17;;;1.70;;
72676;SDS011;60755;51.374;10.662;2023-05-16T10:58:22;4.83;;;2.10;;
72676;SDS011;60755;51.374;10.662;2023-05-16T11:01:04;6.07;;;1.57;;
72676;SDS011;60755;51.374;10.662;2023-05-16T11:03:45;5.67;;;3.17;;
72676;SDS011;60755;51.374;10.662;2023-05-16T11:06:28;7.50;;;2.07;;
72676;SDS011;60755;51.374;10.662;2023-05-16T11:09:02;5.20;;;1.90;;
72676;SDS011;60755;51.374;10.662;2023-05-16T11:11:41;3.43;;;1.50;;
72676;SDS011;60755;51.374;10.662;2023-05-16T11:14:16;8.13;;;2.53;;
72676;SDS011;60755;51.374;10.662;2023-05-16T11:16:50;3.77;;;1.60;;
72676;SDS011;60755;51.374;10.662;2023-05-16T11:19:27;4.80;;;2.17;;
72676;SDS011;60755;51.374;10.662;2023-05-16T11:22:10;4.73;;;1.93;;
72676;SDS011;60755;51.374;10.662;2023-05-16T11:24:49;3.83;;;1.80;;
72676;SDS011;60755;51.374;10.662;2023-05-16T11:27:22;5.17;;;1.40;;
72676;SDS011;60755;51.374;10.662;2023-05-16T11:29:54;4.10;;;1.70;;
72676;SDS011;60755;51.374;10.662;2023-05-16T11:32:37;5.33;;;2.40;;
72676;SDS011;60755;51.374;10.662;2023-05-16T11:35:07;4.03;;;2.50;;
72676;SDS011;60755;51.374;10.662;2023-05-16T11:37:37;3.43;;;1.43;;
72676;SDS011;60755;51.374;10.662;2023-05-16T11:40:05;4.30;;;1.63;;
72676;SDS011;60755;51.374;10.662;2023-05-16T11:42:34;7.30;;;2.13;;
72676;SDS011;60755;51.374;10.662;2023-05-16T11:45:03;9.43;;;2.37;;
72676;SDS011;60755;51.374;10.662;2023-05-16T11:47:32;6.00;;;1.90;;
72676;SDS011;60755;51.374;10.662;2023-05-16T11:49:59;3.43;;;1.63;;
72676;SDS011;60755;51.374;10.662;2023-05-16T11:52:26;9.43;;;2.33;;
72676;SDS011;60755;51.374;10.662;2023-05-16T11:54:54;6.33;;;1.83;;
72676;SDS011;60755;51.374;10.662;2023-05-16T11:57:25;5.90;;;1.80;;
72676;SDS011;60755;51.374;10.662;2023-05-16T11:59:53;5.10;;;2.17;;
72676;SDS011;60755;51.374;10.662;2023-05-16T12:02:20;4.27;;;1.50;;
72676;SDS011;60755;51.374;10.662;2023-05-16T12:04:47;6.10;;;1.30;;
72676;SDS011;60755;51.374;10.662;2023-05-16T12:07:16;3.53;;;1.60;;
72676;SDS011;60755;51.374;10.662;2023-05-16T12:09:50;5.10;;;1.50;;
72676;SDS011;60755;51.374;10.662;2023-05-16T12:12:20;4.70;;;1.70;;
72676;SDS011;60755;51.374;10.662;2023-05-16T12:14:47;5.67;;;1.40;;
72676;SDS011;60755;51.374;10.662;2023-05-16T12:17:14;3.20;;;1.63;;
72676;SDS011;60755;51.374;10.662;2023-05-16T12:19:41;4.73;;;1.30;;
72676;SDS011;60755;51.374;10.662;2023-05-16T12:22:14;3.53;;;1.40;;
72676;SDS011;60755;51.374;10.662;2023-05-16T12:24:42;4.20;;;1.73;;
72676;SDS011;60755;51.374;10.662;2023-05-16T12:27:09;9.53;;;2.27;;
72676;SDS011;60755;51.374;10.662;2023-05-16T12:29:38;2.37;;;1.50;;
72676;SDS011;60755;51.374;10.662;2023-05-16T12:32:06;2.27;;;1.20;;
72676;SDS011;60755;51.374;10.662;2023-05-16T12:34:34;2.70;;;1.40;;
72676;SDS011;60755;51.374;10.662;2023-05-16T12:37:01;7.47;;;1.73;;
72676;SDS011;60755;51.374;10.662;2023-05-16T12:39:29;2.50;;;1.53;;
72676;SDS011;60755;51.374;10.662;2023-05-16T12:42:03;4.87;;;1.77;;
72676;SDS011;60755;51.374;10.662;2023-05-16T12:44:31;3.77;;;1.60;;
72676;SDS011;60755;51.374;10.662;2023-05-16T12:47:00;6.07;;;2.17;;
72676;SDS011;60755;51.374;10.662;2023-05-16T12:49:28;6.37;;;1.63;;
72676;SDS011;60755;51.374;10.662;2023-05-16T12:51:55;2.57;;;1.80;;
72676;SDS011;60755;51.374;10.662;2023-05-16T12:54:30;2.27;;;1.40;;
72676;SDS011;60755;51.374;10.662;2023-05-16T12:56:57;5.97;;;1.73;;
72676;SDS011;60755;51.374;10.662;2023-05-16T12:59:24;5.03;;;1.63;;
72676;SDS011;60755;51.374;10.662;2023-05-16T13:01:53;2.57;;;1.33;;
72676;SDS011;60755;51.374;10.662;2023-05-16T13:04:21;4.03;;;1.37;;
72676;SDS011;60755;51.374;10.662;2023-05-16T13:06:49;3.93;;;1.33;;
72676;SDS011;60755;51.374;10.662;2023-05-16T13:09:16;3.13;;;1.30;;
72676;SDS011;60755;51.374;10.662;2023-05-16T13:11:43;2.30;;;1.30;;
72676;SDS011;60755;51.374;10.662;2023-05-16T13:14:11;2.17;;;1.20;;
72676;SDS011;60755;51.374;10.662;2023-05-16T13:16:38;2.03;;;1.10;;
72676;SDS011;60755;51.374;10.662;2023-05-16T13:19:05;1.70;;;1.10;;
72676;SDS011;60755;51.374;10.662;2023-05-16T13:21:33;5.07;;;1.63;;
72676;SDS011;60755;51.374;10.662;2023-05-16T13:24:01;3.10;;;1.10;;
72676;SDS011;60755;51.374;10.662;2023-05-16T13:26:28;3.60;;;1.47;;
72676;SDS011;60755;51.374;10.662;2023-05-16T13:28:56;1.50;;;1.23;;
72676;SDS011;60755;51.374;10.662;2023-05-16T13:31:23;3.73;;;1.20;;
72676;SDS011;60755;51.374;10.662;2023-05-16T13:33:50;3.37;;;1.80;;
72676;SDS011;60755;51.374;10.662;2023-05-16T13:36:17;2.73;;;1.30;;
72676;SDS011;60755;51.374;10.662;2023-05-16T13:38:45;2.03;;;1.40;;
72676;SDS011;60755;51.374;10.662;2023-05-16T13:41:12;3.87;;;2.00;;
72676;SDS011;60755;51.374;10.662;2023-05-16T13:43:39;4.27;;;1.83;;
72676;SDS011;60755;51.374;10.662;2023-05-16T13:46:06;4.03;;;1.60;;
72676;SDS011;60755;51.374;10.662;2023-05-16T13:48:33;5.27;;;1.53;;
72676;SDS011;60755;51.374;10.662;2023-05-16T13:51:00;3.33;;;2.03;;
72676;SDS011;60755;51.374;10.662;2023-05-16T13:53:27;2.73;;;1.60;;
72676;SDS011;60755;51.374;10.662;2023-05-16T13:55:56;2.70;;;1.10;;
72676;SDS011;60755;51.374;10.662;2023-05-16T13:58:23;5.07;;;1.40;;
72676;SDS011;60755;51.374;10.662;2023-05-16T14:00:50;2.43;;;1.00;;
72676;SDS011;60755;51.374;10.662;2023-05-16T14:03:17;4.33;;;1.47;;
72676;SDS011;60755;51.374;10.662;2023-05-16T14:05:44;3.33;;;1.93;;
72676;SDS011;60755;51.374;10.662;2023-05-16T14:08:14;6.40;;;2.60;;
72676;SDS011;60755;51.374;10.662;2023-05-16T14:10:41;4.33;;;1.50;;
72676;SDS011;60755;51.374;10.662;2023-05-16T14:13:09;2.23;;;1.50;;
72676;SDS011;60755;51.374;10.662;2023-05-16T14:15:36;2.97;;;2.10;;
72676;SDS011;60755;51.374;10.662;2023-05-16T14:18:04;2.87;;;1.80;;
72676;SDS011;60755;51.374;10.662;2023-05-16T14:20:31;2.23;;;1.43;;
72676;SDS011;60755;51.374;10.662;2023-05-16T14:22:58;6.03;;;1.33;;
72676;SDS011;60755;51.374;10.662;2023-05-16T14:25:26;4.77;;;1.33;;
72676;SDS011;60755;51.374;10.662;2023-05-16T14:27:53;5.30;;;1.80;;
72676;SDS011;60755;51.374;10.662;2023-05-16T14:30:22;1.60;;;1.20;;
72676;SDS011;60755;51.374;10.662;2023-05-16T14:32:49;2.80;;;1.30;;